Time;durP1;ratioP1;P1;durP2;ratioP2;P2;SDS_P1;SDS_P2;PMS_P1;PMS_P2;Temp;Humidity;BMP_temperature;BMP_pressure;BME280_temperature;BME280_humidity;BME280_pressure;Samples;Min_cycle;Max_cycle;Signal;HPM_P1;HPM_P2
2022/04/28 00:02:12;;;;;;;10.93;3.40;;;8.70;99.90;;;;;;5047190;28;20136;-80
2022/04/28 00:04:38;;;;;;;;;;;8.70;99.90;;;;;;5031114;28;20512;-80
2022/04/28 00:07:04;;;;;;;8.32;2.95;;;8.70;99.90;;;;;;5047185;28;19978;-80
2022/04/28 00:09:30;;;;;;;8.07;2.72;;;8.60;99.90;;;;;;5047447;28;20041;-80
2022/04/28 00:11:56;;;;;;;8.30;2.90;;;8.70;99.90;;;;;;5047099;28;20037;-81
2022/04/28 00:14:21;;;;;;;8.87;2.33;;;8.60;99.90;;;;;;5047110;28;20323;-80
2022/04/28 00:16:47;;;;;;;8.07;2.33;;;8.70;99.90;;;;;;5047041;28;20040;-81
2022/04/28 00:19:13;;;;;;;8.15;2.50;;;8.70;99.90;;;;;;5047154;28;20041;-79
2022/04/28 00:21:39;;;;;;;7.65;2.20;;;8.70;99.90;;;;;;5046830;28;20040;-80
2022/04/28 00:24:05;;;;;;;7.57;2.38;;;8.70;99.90;;;;;;5030472;28;20087;-80
2022/04/28 00:26:31;;;;;;;6.28;2.60;;;8.70;99.90;;;;;;5048337;28;20048;-80
2022/04/28 00:28:57;;;;;;;7.28;2.45;;;8.70;99.90;;;;;;5034018;28;20059;-80
2022/04/28 00:31:23;;;;;;;7.40;2.60;;;8.80;99.90;;;;;;5050725;28;20116;-80
2022/04/28 00:33:48;;;;;;;6.70;2.40;;;9.00;99.90;;;;;;5050741;28;20484;-80
2022/04/28 00:36:14;;;;;;;6.33;2.60;;;8.70;99.90;;;;;;5050497;28;20049;-80
2022/04/28 00:38:40;;;;;;;9.82;2.95;;;8.70;99.90;;;;;;5033870;28;20279;-80
2022/04/28 00:41:06;;;;;;;7.80;2.30;;;8.70;99.90;;;;;;5051102;28;20098;-80
2022/04/28 00:43:33;;;;;;;6.93;3.03;;;8.80;99.90;;;;;;5033985;28;20045;-80
2022/04/28 00:45:59;;;;;;;4.95;2.45;;;8.70;99.90;;;;;;5050449;28;20395;-80
2022/04/28 00:51:11;;;;;;;7.15;2.15;;;8.70;99.90;;;;;;5050703;28;20071;-80
2022/04/28 00:53:51;;;;;;;8.23;2.22;;;8.70;99.90;;;;;;5049991;28;20033;-81
2022/04/28 00:56:16;;;;;;;11.20;2.72;;;8.70;99.90;;;;;;5014067;28;20099;-81
2022/04/28 00:58:42;;;;;;;6.72;3.00;;;8.70;99.90;;;;;;5030116;28;20041;-80
2022/04/28 01:01:09;;;;;;;8.57;2.80;;;8.70;99.90;;;;;;5030437;28;20041;-81
2022/04/28 01:03:34;;;;;;;6.10;2.33;;;8.70;99.90;;;;;;5030388;28;20493;-81
2022/04/28 01:06:01;;;;;;;4.70;2.20;;;8.80;99.90;;;;;;5044169;28;20041;-80
2022/04/28 01:08:28;;;;;;;9.93;2.90;;;8.80;99.90;;;;;;5033372;28;20329;-80
2022/04/28 01:10:55;;;;;;;7.45;2.65;;;8.80;99.90;;;;;;5033526;28;20048;-79
2022/04/28 01:13:20;;;;;;;8.50;2.75;;;8.80;99.90;;;;;;5050015;28;20041;-80
2022/04/28 01:15:48;;;;;;;7.68;2.60;;;8.80;99.90;;;;;;5049579;28;20047;-80
2022/04/28 01:18:15;;;;;;;8.43;2.58;;;8.80;99.90;;;;;;5033642;28;20040;-80
2022/04/28 01:20:41;;;;;;;6.65;2.35;;;8.80;99.90;;;;;;5049969;28;20115;-79
2022/04/28 01:23:07;;;;;;;7.70;2.53;;;8.80;99.90;;;;;;5033665;28;20128;-80
2022/04/28 01:25:33;;;;;;;6.47;2.78;;;8.80;99.90;;;;;;5049775;28;20049;-80
2022/04/28 01:27:59;;;;;;;5.20;3.20;;;8.70;99.90;;;;;;5030566;28;20036;-80
2022/04/28 01:30:25;;;;;;;8.73;3.20;;;8.80;99.90;;;;;;5016649;28;20033;-80
2022/04/28 01:32:52;;;;;;;7.90;3.17;;;8.70;99.90;;;;;;5049502;28;20033;-80
2022/04/28 01:35:18;;;;;;;8.13;3.10;;;8.70;99.90;;;;;;5049101;28;20045;-80
2022/04/28 01:37:43;;;;;;;12.07;3.37;;;8.70;99.90;;;;;;5016308;28;20044;-80
2022/04/28 01:40:13;;;;;;;7.37;3.63;;;8.80;99.90;;;;;;5033193;28;20639;-80
2022/04/28 01:42:40;;;;;;;6.03;3.15;;;8.70;99.90;;;;;;5049617;28;20072;-80
2022/04/28 01:45:07;;;;;;;9.48;3.40;;;8.80;99.90;;;;;;5049624;28;20037;-80
2022/04/28 01:47:33;;;;;;;8.45;3.13;;;8.70;99.90;;;;;;5050718;28;20064;-80
2022/04/28 01:49:59;;;;;;;10.00;2.92;;;8.80;99.90;;;;;;5049248;28;20040;-80
2022/04/28 01:55:09;;;;;;;9.48;2.75;;;8.80;99.90;;;;;;5035457;28;20041;-81
2022/04/28 01:57:36;;;;;;;7.88;2.78;;;8.70;99.90;;;;;;5049077;28;20033;-79
2022/04/28 02:00:03;;;;;;;6.30;2.78;;;8.80;99.90;;;;;;5050288;28;20033;-80
2022/04/28 02:02:31;;;;;;;6.15;2.70;;;8.70;99.90;;;;;;5032292;28;20037;-79
2022/04/28 02:04:59;;;;;;;8.38;2.80;;;8.70;99.90;;;;;;5032647;28;20515;-80
2022/04/28 02:07:28;;;;;;;8.60;2.90;;;8.80;99.90;;;;;;5049243;28;20036;-80
2022/04/28 02:09:55;;;;;;;7.70;2.83;;;8.80;99.90;;;;;;5048786;28;20036;-80
2022/04/28 02:12:21;;;;;;;7.72;2.80;;;8.70;99.90;;;;;;5032602;28;20127;-79
2022/04/28 02:14:47;;;;;;;7.22;3.05;;;8.70;99.90;;;;;;5048568;28;20041;-80
2022/04/28 02:17:25;;;;;;;8.70;2.78;;;8.80;99.90;;;;;;5050107;28;20367;-80
2022/04/28 02:19:51;;;;;;;5.05;2.72;;;8.80;99.90;;;;;;5048821;28;20033;-79
2022/04/28 02:22:18;;;;;;;8.80;3.03;;;8.80;99.90;;;;;;5032077;28;20044;-79
2022/04/28 02:24:44;;;;;;;8.00;3.25;;;8.80;99.90;;;;;;5031618;28;20045;-80
2022/04/28 02:27:10;;;;;;;9.00;3.20;;;8.80;99.90;;;;;;5032371;28;20047;-80
2022/04/28 02:29:36;;;;;;;8.07;3.60;;;8.80;99.90;;;;;;5049960;28;20424;-80
2022/04/28 02:32:03;;;;;;;9.13;3.22;;;8.80;99.90;;;;;;5048157;28;20044;-80
2022/04/28 02:34:29;;;;;;;8.45;3.60;;;8.80;99.90;;;;;;5048670;28;20041;-79
2022/04/28 02:36:55;;;;;;;8.73;2.72;;;8.80;99.90;;;;;;5048167;28;20044;-80
2022/04/28 02:39:21;;;;;;;7.47;2.60;;;8.80;99.90;;;;;;5048174;28;20033;-79
2022/04/28 02:41:47;;;;;;;7.90;3.27;;;8.70;99.90;;;;;;5031370;28;20424;-79
2022/04/28 02:44:13;;;;;;;10.88;2.90;;;8.80;99.90;;;;;;5048323;28;20052;-80
2022/04/28 02:46:40;;;;;;;7.22;2.75;;;8.70;99.90;;;;;;5031024;28;20051;-80
2022/04/28 02:49:06;;;;;;;6.80;3.13;;;8.80;99.90;;;;;;5047997;28;20060;-79
2022/04/28 02:51:32;;;;;;;8.45;3.63;;;8.80;99.90;;;;;;5048217;28;20033;-80
2022/04/28 02:53:57;;;;;;;11.67;4.67;;;8.80;99.90;;;;;;5048074;28;20041;-79
2022/04/28 02:56:25;;;;;;;11.05;4.00;;;8.80;99.90;;;;;;5031525;28;20287;-80
2022/04/28 02:58:51;;;;;;;9.48;4.05;;;8.70;99.90;;;;;;5047747;28;20401;-79
2022/04/28 03:01:16;;;;;;;9.40;3.92;;;8.70;99.90;;;;;;5048087;28;20124;-79
2022/04/28 03:03:42;;;;;;;11.33;3.97;;;8.70;99.90;;;;;;5048217;28;20477;-80
2022/04/28 03:11:36;;;;;;;11.07;4.45;;;8.70;99.90;;;;;;5048265;28;20539;-81
2022/04/28 03:14:02;;;;;;;10.23;4.30;;;8.70;99.90;;;;;;5047617;28;20045;-79
2022/04/28 03:16:28;;;;;;;6.15;3.72;;;8.60;99.90;;;;;;5047856;28;20037;-80
2022/04/28 03:18:54;;;;;;;10.48;4.22;;;8.60;99.90;;;;;;5014511;28;20037;-80
2022/04/28 03:21:20;;;;;;;12.70;4.20;;;8.60;99.90;;;;;;5045619;28;20074;-79
2022/04/28 03:23:46;;;;;;;9.40;3.70;;;8.70;99.90;;;;;;5047388;28;20116;-80
2022/04/28 03:26:12;;;;;;;8.30;3.70;;;8.70;99.90;;;;;;5031200;28;20128;-80
2022/04/28 03:28:38;;;;;;;8.82;3.50;;;8.60;99.90;;;;;;5047542;28;20123;-80
2022/04/28 03:31:05;;;;;;;11.77;3.92;;;8.60;99.90;;;;;;5048585;28;20037;-80
2022/04/28 03:33:31;;;;;;;9.95;4.25;;;8.60;99.90;;;;;;5031008;28;20079;-80
2022/04/28 03:35:57;;;;;;;8.10;3.67;;;8.60;99.90;;;;;;5047384;28;20083;-80
2022/04/28 03:38:23;;;;;;;9.15;4.13;;;8.60;99.90;;;;;;5047423;28;20481;-80
2022/04/28 03:40:48;;;;;;;11.88;3.90;;;8.50;99.90;;;;;;5047520;28;20108;-80
2022/04/28 03:43:14;;;;;;;10.33;3.77;;;8.60;99.90;;;;;;5031418;28;20037;-79
2022/04/28 03:45:41;;;;;;;9.90;4.05;;;8.60;99.90;;;;;;5031282;28;20520;-80
2022/04/28 03:48:10;;;;;;;11.98;3.85;;;8.50;99.90;;;;;;5047211;28;20071;-80
2022/04/28 03:50:39;;;;;;;7.03;3.85;;;8.50;99.90;;;;;;5047305;28;20041;-82
2022/04/28 03:53:06;;;;;;;9.32;3.85;;;8.60;99.90;;;;;;5031110;28;20044;-80
2022/04/28 03:55:31;;;;;;;11.23;3.80;;;8.60;99.90;;;;;;5047697;28;20496;-80
2022/04/28 03:57:58;;;;;;;8.82;4.75;;;8.60;99.90;;;;;;5047853;28;20048;-81
2022/04/28 04:00:25;;;;;;;10.25;4.80;;;8.60;99.90;;;;;;5051976;28;20554;-80
2022/04/28 04:02:51;;;;;;;11.60;4.28;;;8.60;99.90;;;;;;5051024;28;20052;-80
2022/04/28 04:05:16;;;;;;;11.97;4.87;;;8.60;99.90;;;;;;5051566;28;20045;-80
2022/04/28 04:07:43;;;;;;;5.97;3.67;;;8.60;99.90;;;;;;5051530;28;20284;-80
2022/04/28 04:10:10;;;;;;;8.98;4.15;;;8.60;99.90;;;;;;5034674;28;20457;-80
2022/04/28 04:12:36;;;;;;;7.95;4.13;;;8.70;99.90;;;;;;5051391;28;20067;-79
2022/04/28 04:15:03;;;;;;;9.80;4.45;;;8.70;99.90;;;;;;5051068;28;20072;-79
2022/04/28 04:17:29;;;;;;;11.65;4.35;;;8.70;99.90;;;;;;5034402;28;20037;-78
2022/04/28 04:19:54;;;;;;;10.57;4.50;;;8.60;99.90;;;;;;5050810;28;20055;-78
2022/04/28 04:22:20;;;;;;;7.00;4.63;;;8.70;99.90;;;;;;5051194;28;20484;-78
2022/04/28 04:24:46;;;;;;;11.13;4.50;;;8.60;99.90;;;;;;5053975;28;20523;-80
2022/04/28 04:27:14;;;;;;;11.68;5.13;;;8.60;99.90;;;;;;5037925;28;20546;-82
2022/04/28 04:29:40;;;;;;;12.55;4.63;;;8.60;99.90;;;;;;5037561;28;20409;-84
2022/04/28 04:32:18;;;;;;;8.73;4.50;;;8.60;99.90;;;;;;5054186;28;20033;-81
2022/04/28 04:34:48;;;;;;;10.68;4.82;;;8.60;99.90;;;;;;5054169;28;20036;-81
2022/04/28 04:37:14;;;;;;;10.98;5.00;;;8.60;99.90;;;;;;5054209;28;20514;-82
2022/04/28 04:39:43;;;;;;;11.98;4.82;;;8.60;99.90;;;;;;5050718;28;20048;-81
2022/04/28 04:42:09;;;;;;;8.98;4.15;;;8.60;99.90;;;;;;5051764;28;20499;-82
2022/04/28 04:44:35;;;;;;;8.02;4.20;;;8.60;99.90;;;;;;5053804;28;20043;-82
2022/04/28 04:47:02;;;;;;;12.68;4.82;;;8.70;99.90;;;;;;5053703;28;20036;-83
2022/04/28 04:49:28;;;;;;;11.00;4.70;;;8.70;99.90;;;;;;5048328;28;20127;-82
2022/04/28 04:51:54;;;;;;;11.33;3.90;;;8.70;99.90;;;;;;5050446;28;20144;-82
2022/04/28 04:54:21;;;;;;;8.45;4.50;;;8.70;99.90;;;;;;5050929;28;20368;-82
2022/04/28 04:56:47;;;;;;;11.68;4.45;;;8.70;99.90;;;;;;5050343;28;20080;-83
2022/04/28 04:59:13;;;;;;;12.83;3.80;;;8.70;99.90;;;;;;5035083;28;20068;-83
2022/04/28 05:01:39;;;;;;;10.10;4.00;;;8.70;99.90;;;;;;5054484;28;20537;-83
2022/04/28 05:04:04;;;;;;;9.70;3.60;;;8.70;99.90;;;;;;5050662;28;20124;-82
2022/04/28 05:06:30;;;;;;;11.83;3.27;;;8.60;99.90;;;;;;5050891;28;20800;-82
2022/04/28 05:08:57;;;;;;;8.20;3.08;;;8.60;99.90;;;;;;5050896;28;20515;-82
2022/04/28 05:11:22;;;;;;;6.90;2.90;;;8.60;99.90;;;;;;5050158;28;20045;-83
2022/04/28 05:13:48;;;;;;;9.82;3.03;;;8.60;99.90;;;;;;5051483;28;20451;-82
2022/04/28 05:16:14;;;;;;;12.98;3.22;;;8.70;99.90;;;;;;5028184;28;20110;-82
2022/04/28 05:18:39;;;;;;;8.38;3.45;;;8.70;99.90;;;;;;5053868;28;20036;-82
2022/04/28 05:21:05;;;;;;;9.90;3.17;;;8.70;99.90;;;;;;5054221;28;20052;-83
2022/04/28 05:23:31;;;;;;;11.50;3.07;;;8.70;99.90;;;;;;5051576;28;20299;-82
2022/04/28 05:25:56;;;;;;;8.53;3.00;;;8.90;99.90;;;;;;5053593;28;20049;-82
2022/04/28 05:28:26;;;;;;;7.50;2.75;;;8.90;99.90;;;;;;5054050;28;20070;-82
2022/04/28 05:30:54;;;;;;;16.80;3.38;;;9.10;99.90;;;;;;5054329;28;20499;-82
2022/04/28 05:33:19;;;;;;;8.20;2.60;;;8.90;99.90;;;;;;5053938;28;20041;-82
2022/04/28 05:35:45;;;;;;;9.27;3.03;;;8.90;99.90;;;;;;5053718;28;20043;-82
2022/04/28 05:38:11;;;;;;;10.25;2.88;;;9.00;99.90;;;;;;5036839;28;20450;-82
2022/04/28 05:40:41;;;;;;;9.20;2.63;;;8.90;99.90;;;;;;5053389;28;20067;-82
2022/04/28 05:45:57;;;;;;;7.80;2.50;;;8.90;99.90;;;;;;5005652;28;20048;-82
2022/04/28 05:48:23;;;;;;;10.10;2.77;;;9.00;99.90;;;;;;5034703;28;20025;-82
2022/04/28 05:50:49;;;;;;;8.80;3.00;;;8.90;99.90;;;;;;5053503;28;20039;-82
2022/04/28 05:53:14;;;;;;;9.02;2.53;;;8.90;99.90;;;;;;5053123;28;20043;-81
2022/04/28 05:55:40;;;;;;;7.33;2.43;;;9.00;99.90;;;;;;5053462;28;20054;-81
2022/04/28 05:58:07;;;;;;;7.95;2.42;;;8.90;99.90;;;;;;5053191;28;20040;-81
2022/04/28 06:00:33;;;;;;;5.63;2.30;;;9.00;99.90;;;;;;5053135;28;20098;-82
2022/04/28 06:02:59;;;;;;;;;;;9.00;99.90;;;;;;5053351;28;21128;-82
2022/04/28 06:05:25;;;;;;;8.15;2.67;;;9.70;99.90;;;;;;5053165;28;20373;-82
2022/04/28 06:07:51;;;;;;;9.05;2.88;;;9.00;99.90;;;;;;5053294;28;20040;-81
2022/04/28 06:10:18;;;;;;;8.40;2.78;;;9.10;99.90;;;;;;5049473;28;20131;-82
2022/04/28 06:12:43;;;;;;;9.85;2.90;;;9.30;99.90;;;;;;5052789;28;20037;-82
2022/04/28 06:15:10;;;;;;;8.73;2.80;;;9.40;99.90;;;;;;5036506;28;20438;-82
2022/04/28 06:17:36;;;;;;;6.45;2.72;;;9.60;99.90;;;;;;5052698;28;20294;-82
2022/04/28 06:20:03;;;;;;;9.43;2.50;;;9.80;99.90;;;;;;5052379;28;20029;-82
2022/04/28 06:22:29;;;;;;;7.60;2.60;;;9.90;99.90;;;;;;5035002;28;20067;-82
2022/04/28 06:24:56;;;;;;;8.65;2.80;;;10.10;99.90;;;;;;5035983;28;20410;-82
2022/04/28 06:27:22;;;;;;;6.00;2.22;;;10.10;99.90;;;;;;5052628;28;20477;-82
2022/04/28 06:29:49;;;;;;;9.02;2.20;;;10.50;99.90;;;;;;5052940;28;20074;-82
2022/04/28 06:32:18;;;;;;;8.70;2.60;;;10.90;99.90;;;;;;5052284;28;20664;-82
2022/04/28 06:34:44;;;;;;;9.93;2.13;;;11.40;99.90;;;;;;5052453;28;20103;-82
2022/04/28 06:37:11;;;;;;;10.45;2.17;;;11.80;99.90;;;;;;5049221;28;20405;-82
2022/04/28 06:39:37;;;;;;;7.85;2.63;;;11.90;99.90;;;;;;5050181;28;20396;-82
2022/04/28 06:42:04;;;;;;;7.95;2.72;;;12.30;99.90;;;;;;5052509;28;20040;-82
2022/04/28 06:44:29;;;;;;;6.47;1.92;;;12.40;99.90;;;;;;5052169;28;20476;-83
2022/04/28 06:46:55;;;;;;;6.50;1.92;;;12.70;99.90;;;;;;5052601;28;20036;-82
2022/04/28 06:49:21;;;;;;;6.63;2.13;;;12.80;99.90;;;;;;5051935;28;20055;-82
2022/04/28 06:51:47;;;;;;;8.13;1.80;;;13.00;99.90;;;;;;5035986;28;20070;-83
2022/04/28 06:54:12;;;;;;;8.57;1.88;;;13.00;99.90;;;;;;5051914;28;20045;-82
2022/04/28 06:56:39;;;;;;;7.97;1.75;;;13.10;99.90;;;;;;5035876;28;20108;-83
2022/04/28 06:59:04;;;;;;;8.30;1.80;;;13.30;99.90;;;;;;5052020;28;20048;-82
2022/04/28 07:01:31;;;;;;;5.43;1.70;;;13.20;99.90;;;;;;5052171;28;20455;-83
2022/04/28 07:03:57;;;;;;;6.85;1.55;;;12.90;99.90;;;;;;5035664;28;20050;-83
2022/04/28 07:06:23;;;;;;;6.15;1.50;;;12.70;99.90;;;;;;5052031;28;20040;-83
2022/04/28 07:08:49;;;;;;;7.40;2.00;;;12.50;99.90;;;;;;5015850;28;20047;-83
2022/04/28 07:11:15;;;;;;;8.95;2.13;;;12.90;99.90;;;;;;5048576;28;20033;-82
2022/04/28 07:13:41;;;;;;;8.25;1.50;;;12.80;99.90;;;;;;5032006;28;20041;-83
2022/04/28 07:16:07;;;;;;;5.15;1.40;;;12.60;99.90;;;;;;5049745;28;20091;-83
2022/04/28 07:18:33;;;;;;;6.80;1.70;;;12.40;99.90;;;;;;5048780;28;20029;-83
2022/04/28 07:21:03;;;;;;;6.53;1.83;;;12.70;99.90;;;;;;5048634;28;20037;-83
2022/04/28 07:23:30;;;;;;;8.43;1.80;;;13.10;99.90;;;;;;5048358;28;20072;-83
2022/04/28 07:25:55;;;;;;;4.28;1.30;;;13.50;99.90;;;;;;5032062;28;20135;-84
2022/04/28 07:28:21;;;;;;;5.60;1.40;;;13.90;99.90;;;;;;5031731;28;20128;-82
2022/04/28 07:30:47;;;;;;;5.78;1.30;;;14.60;99.90;;;;;;5031976;28;20178;-82
2022/04/28 07:33:13;;;;;;;7.13;1.40;;;14.90;99.90;;;;;;5047889;28;20037;-83
2022/04/28 07:35:39;;;;;;;4.88;1.20;;;14.70;99.90;;;;;;5048395;28;20118;-83
2022/04/28 07:38:05;;;;;;;7.15;1.30;;;14.50;99.90;;;;;;5038790;28;20060;-82
2022/04/28 07:40:31;;;;;;;5.60;1.52;;;14.60;99.90;;;;;;5051754;28;20045;-82
2022/04/28 07:42:57;;;;;;;6.40;1.20;;;14.70;99.90;;;;;;5051677;28;20048;-82
2022/04/28 07:45:23;;;;;;;5.97;1.42;;;14.50;99.90;;;;;;5051189;28;20059;-81
2022/04/28 07:47:50;;;;;;;6.40;1.60;;;14.10;99.90;;;;;;5034954;28;20032;-82
2022/04/28 07:50:16;;;;;;;7.82;1.77;;;13.90;99.90;;;;;;5047750;28;20070;-83
2022/04/28 07:52:43;;;;;;;8.73;1.70;;;14.40;99.90;;;;;;5034852;28;20032;-82
2022/04/28 07:55:10;;;;;;;7.75;1.30;;;14.90;99.90;;;;;;5051443;28;20540;-82
2022/04/28 07:57:36;;;;;;;4.60;1.20;;;15.50;99.90;;;;;;5051341;28;20048;-82
2022/04/28 08:00:04;;;;;;;6.07;1.48;;;15.90;99.90;;;;;;5051787;28;20650;-83
2022/04/28 08:02:30;;;;;;;6.47;1.27;;;16.10;99.90;;;;;;5051591;28;20090;-82
2022/04/28 08:04:56;;;;;;;4.22;1.10;;;15.80;99.90;;;;;;5051341;28;20036;-82
2022/04/28 08:07:22;;;;;;;6.95;1.25;;;16.30;99.90;;;;;;5051301;28;20024;-83
2022/04/28 08:09:48;;;;;;;11.32;1.60;;;16.40;99.90;;;;;;5051191;28;20111;-83
2022/04/28 08:12:13;;;;;;;5.82;1.20;;;16.30;99.90;;;;;;5048103;28;20112;-83
2022/04/28 08:14:39;;;;;;;7.45;1.42;;;16.50;99.90;;;;;;5047971;28;20052;-83
2022/04/28 08:17:05;;;;;;;4.70;1.17;;;16.40;99.90;;;;;;5048195;28;20056;-82
2022/04/28 08:19:32;;;;;;;6.30;1.45;;;15.60;99.90;;;;;;5049055;28;20041;-83
2022/04/28 08:21:58;;;;;;;7.30;1.42;;;15.80;99.90;;;;;;5051506;28;20063;-83
2022/04/28 08:24:24;;;;;;;6.50;1.30;;;16.10;99.90;;;;;;5034163;28;20036;-82
2022/04/28 08:26:51;;;;;;;3.92;1.20;;;16.50;99.90;;;;;;5051192;28;20532;-82
2022/04/28 08:29:17;;;;;;;5.90;1.27;;;16.60;99.90;;;;;;5050997;28;20036;-82
2022/04/28 08:31:46;;;;;;;4.55;1.60;;;16.20;99.90;;;;;;5047670;28;20417;-83
2022/04/28 08:34:13;;;;;;;4.70;1.17;;;16.30;99.90;;;;;;5034584;28;20488;-83
2022/04/28 08:36:40;;;;;;;9.30;1.38;;;16.10;99.90;;;;;;5034702;28;20047;-82
2022/04/28 08:39:06;;;;;;;5.93;1.33;;;15.90;99.90;;;;;;5034827;28;20082;-82
2022/04/28 08:41:37;;;;;;;6.60;1.40;;;15.40;99.90;;;;;;5051112;28;20036;-82
2022/04/28 08:44:04;;;;;;;5.80;1.35;;;15.40;99.90;;;;;;5051115;28;20040;-82
2022/04/28 08:49:17;;;;;;;7.93;2.00;;;15.10;99.90;;;;;;5054342;28;20071;-82
2022/04/28 08:51:43;;;;;;;6.30;2.03;;;14.90;99.90;;;;;;5054664;28;20041;-83
2022/04/28 08:54:13;;;;;;;8.73;2.00;;;15.20;99.90;;;;;;5054746;28;20492;-82
2022/04/28 08:56:39;;;;;;;6.22;1.70;;;15.40;99.90;;;;;;5054413;28;20084;-83
2022/04/28 08:59:06;;;;;;;6.13;1.80;;;15.80;99.90;;;;;;5055092;28;20488;-82
2022/04/28 09:01:32;;;;;;;10.00;1.90;;;15.60;99.90;;;;;;5037478;28;20037;-82
2022/04/28 09:04:00;;;;;;;8.65;1.80;;;15.30;99.90;;;;;;5054279;28;20040;-83
2022/04/28 09:06:29;;;;;;;9.40;2.47;;;15.20;99.90;;;;;;5053978;28;20036;-83
2022/04/28 09:08:58;;;;;;;9.60;2.50;;;14.90;99.90;;;;;;5054165;28;20029;-83
2022/04/28 09:11:26;;;;;;;9.93;2.20;;;14.80;99.90;;;;;;5053751;28;20481;-82
2022/04/28 09:14:09;;;;;;;6.00;2.45;;;14.90;99.90;;;;;;5054072;28;20108;-82
2022/04/28 09:17:02;;;;;;;9.43;2.55;;;15.00;99.90;;;;;;5037543;28;20078;-82
2022/04/28 09:19:37;;;;;;;10.70;2.88;;;15.20;99.90;;;;;;5053687;28;20036;-83
2022/04/28 09:22:08;;;;;;;11.55;2.50;;;15.20;99.90;;;;;;5053905;28;20123;-83
2022/04/28 09:24:35;;;;;;;7.32;2.30;;;15.10;99.90;;;;;;5050284;28;20041;-83
2022/04/28 09:27:02;;;;;;;9.35;2.25;;;14.80;99.90;;;;;;5050496;28;20057;-82
2022/04/28 09:29:29;;;;;;;;;;;14.70;99.90;;;;;;5039752;28;20567;-83
2022/04/28 09:31:56;;;;;;;11.80;2.30;;;14.40;99.90;;;;;;5054064;28;19916;-82
2022/04/28 09:34:23;;;;;;;8.48;2.00;;;14.20;99.90;;;;;;5044267;28;20087;-82
2022/04/28 09:36:50;;;;;;;8.25;2.20;;;14.20;99.90;;;;;;5037608;28;20043;-83
2022/04/28 09:42:29;;;;;;;7.75;2.53;;;14.20;99.90;;;;;;5036973;28;20036;-83
2022/04/28 09:44:50;;;;;;;9.48;2.15;;;14.10;99.90;;;;;;5039808;28;20455;-82
2022/04/28 09:47:20;;;;;;;8.90;2.00;;;13.80;99.90;;;;;;5052771;28;20082;-82
2022/04/28 09:49:52;;;;;;;7.75;2.00;;;13.90;99.90;;;;;;5053356;28;20067;-83
2022/04/28 09:52:31;;;;;;;9.30;2.17;;;13.80;99.90;;;;;;5053233;28;20055;-82
2022/04/28 09:54:59;;;;;;;8.20;2.30;;;13.70;99.90;;;;;;5053602;28;20480;-82
2022/04/28 09:57:25;;;;;;;11.15;2.38;;;13.40;99.90;;;;;;5070517;28;20040;-83
2022/04/28 09:59:55;;;;;;;9.57;2.22;;;13.30;99.90;;;;;;5037070;28;20036;-83
2022/04/28 10:02:23;;;;;;;7.70;2.20;;;13.40;99.90;;;;;;5049663;28;20032;-83
2022/04/28 10:04:50;;;;;;;5.43;2.03;;;13.60;99.90;;;;;;5049743;28;20120;-83
2022/04/28 10:07:17;;;;;;;10.57;2.70;;;13.40;99.90;;;;;;5049650;28;20041;-82
2022/04/28 10:09:45;;;;;;;7.38;2.20;;;13.40;99.90;;;;;;5049414;28;20119;-83
2022/04/28 10:12:14;;;;;;;10.93;2.17;;;13.30;99.90;;;;;;5033564;28;20520;-83
2022/04/28 10:14:41;;;;;;;9.38;2.40;;;13.50;99.90;;;;;;5050028;28;20053;-82
2022/04/28 10:17:15;;;;;;;9.35;2.60;;;13.50;99.90;;;;;;5049800;28;20049;-83
2022/04/28 10:19:45;;;;;;;;;;;13.70;99.90;;;;;;5033579;28;20094;-82
2022/04/28 10:22:19;;;;;;;12.73;2.42;;;13.80;99.90;;;;;;5047824;28;19917;-82
2022/04/28 10:33:21;;;;;;;7.50;2.00;;;13.90;99.90;;;;;;5052698;28;20136;-83
2022/04/28 10:35:49;;;;;;;7.35;2.17;;;14.00;99.90;;;;;;5052917;28;20495;-82
2022/04/28 10:38:34;;;;;;;7.60;2.13;;;13.80;99.90;;;;;;5052924;28;20040;-83
2022/04/28 10:41:03;;;;;;;10.98;1.83;;;13.70;99.90;;;;;;5053485;28;20079;-82
2022/04/28 10:43:32;;;;;;;6.15;2.10;;;13.90;99.90;;;;;;5031218;28;20033;-83
2022/04/28 10:45:59;;;;;;;8.32;1.70;;;13.90;99.90;;;;;;5040991;28;20111;-82
2022/04/28 10:48:31;;;;;;;7.28;1.95;;;13.60;99.90;;;;;;5052780;28;20377;-82
2022/04/28 10:51:07;;;;;;;8.23;1.88;;;13.80;99.90;;;;;;5045052;28;20044;-82
2022/04/28 10:53:33;;;;;;;9.05;2.50;;;14.20;99.90;;;;;;5048982;28;20537;-82
2022/04/28 10:56:07;;;;;;;;;;;14.20;99.90;;;;;;5052464;28;20140;-81
2022/04/28 10:58:33;;;;;;;8.60;1.80;;;13.90;99.90;;;;;;5051557;28;19923;-82
2022/04/28 11:01:00;;;;;;;7.97;1.90;;;13.80;99.90;;;;;;5051963;28;20040;-83
2022/04/28 11:03:47;;;;;;;5.57;1.58;;;14.00;99.90;;;;;;5048434;28;20430;-82
2022/04/28 11:06:45;;;;;;;9.10;1.63;;;14.10;99.90;;;;;;5052133;28;20072;-83
2022/04/28 11:09:11;;;;;;;7.63;1.85;;;14.30;99.90;;;;;;5051585;28;20388;-81
2022/04/28 11:11:46;;;;;;;8.13;1.83;;;14.40;99.90;;;;;;5051971;28;20044;-83
2022/04/28 11:14:12;;;;;;;7.13;1.80;;;14.40;99.90;;;;;;5051906;28;20109;-82
2022/04/28 11:16:43;;;;;;;8.23;2.33;;;14.30;99.90;;;;;;5051342;28;20177;-82
2022/04/28 11:19:10;;;;;;;8.00;2.17;;;14.30;99.90;;;;;;5051791;28;20051;-82
2022/04/28 11:21:40;;;;;;;7.50;2.15;;;14.30;99.90;;;;;;5034539;28;20097;-82
2022/04/28 11:24:06;;;;;;;10.68;2.15;;;14.10;99.90;;;;;;5051711;28;20044;-82
2022/04/28 11:26:33;;;;;;;8.23;1.92;;;14.30;99.90;;;;;;5034204;28;20091;-83
2022/04/28 11:29:07;;;;;;;7.90;1.88;;;14.30;99.90;;;;;;5051549;28;20044;-82
2022/04/28 11:31:33;;;;;;;9.65;2.42;;;14.30;99.90;;;;;;5030922;28;20044;-83
2022/04/28 11:34:00;;;;;;;6.57;2.03;;;14.20;99.90;;;;;;5048504;28;20045;-82
2022/04/28 11:36:28;;;;;;;11.27;2.13;;;14.10;99.90;;;;;;5031707;28;20044;-82
2022/04/28 11:38:59;;;;;;;7.68;1.98;;;14.30;99.90;;;;;;5048153;28;20040;-82
2022/04/28 11:41:38;;;;;;;7.32;1.90;;;14.10;99.90;;;;;;5047670;28;20048;-83
2022/04/28 11:44:17;;;;;;;5.53;1.52;;;14.20;99.90;;;;;;5031522;28;20118;-82
2022/04/28 11:46:49;;;;;;;6.47;1.67;;;14.30;99.90;;;;;;5046981;28;20037;-82
2022/04/28 11:49:20;;;;;;;6.75;2.08;;;14.30;99.90;;;;;;5048278;28;20037;-82
2022/04/28 11:51:46;;;;;;;7.63;1.45;;;14.60;99.90;;;;;;5047941;28;20112;-83
2022/04/28 11:54:24;;;;;;;8.70;1.80;;;14.20;99.90;;;;;;5048089;28;20099;-82
2022/04/28 11:56:50;;;;;;;6.63;1.77;;;14.40;99.90;;;;;;5031619;28;20045;-83
2022/04/28 11:59:16;;;;;;;7.85;1.85;;;14.10;99.90;;;;;;5031773;28;20049;-82
2022/04/28 12:01:43;;;;;;;;;;;13.80;99.90;;;;;;5031688;28;20045;-83
2022/04/28 12:04:11;;;;;;;7.25;2.08;;;13.90;99.90;;;;;;5033285;28;20058;-83
2022/04/28 12:06:40;;;;;;;6.65;1.77;;;13.80;99.90;;;;;;5050557;28;20181;-83
2022/04/28 12:14:36;;;;;;;8.15;1.95;;;14.20;99.90;;;;;;5050660;28;20397;-81
2022/04/28 12:20:00;;;;;;;6.97;1.92;;;14.40;99.90;;;;;;5053143;28;20448;-82
2022/04/28 12:22:36;;;;;;;5.80;1.85;;;14.30;99.90;;;;;;5054484;28;20091;-82
2022/04/28 12:25:17;;;;;;;3.80;1.73;;;14.20;99.90;;;;;;5038067;28;20076;-83
2022/04/28 12:27:51;;;;;;;7.85;2.13;;;14.20;99.90;;;;;;5021887;28;20040;-83
2022/04/28 12:30:18;;;;;;;5.93;2.25;;;14.40;99.90;;;;;;5038297;28;20025;-83
2022/04/28 12:32:47;;;;;;;8.43;1.85;;;14.40;99.90;;;;;;5054213;28;20062;-82
2022/04/28 12:35:35;;;;;;;10.10;2.30;;;14.10;99.90;;;;;;5054756;28;20072;-82
2022/04/28 12:38:10;;;;;;;6.80;2.10;;;14.10;99.90;;;;;;5054723;28;20094;-83
2022/04/28 12:40:40;;;;;;;5.68;1.92;;;14.10;99.90;;;;;;5050638;28;20066;-82
2022/04/28 12:43:08;;;;;;;4.47;1.73;;;14.40;99.90;;;;;;5034610;28;20119;-82
2022/04/28 12:45:42;;;;;;;4.80;1.70;;;14.60;99.90;;;;;;5033992;28;20040;-82
2022/04/28 12:48:30;;;;;;;5.32;1.95;;;14.50;99.90;;;;;;5054604;28;20040;-83
2022/04/28 12:51:19;;;;;;;9.73;1.98;;;13.90;99.90;;;;;;5054683;28;20037;-83
2022/04/28 12:54:06;;;;;;;8.88;2.00;;;14.20;99.90;;;;;;5053932;28;20430;-82
2022/04/28 12:56:32;;;;;;;7.88;2.47;;;14.00;99.90;;;;;;5033877;28;20037;-81
2022/04/28 12:59:00;;;;;;;8.57;1.77;;;13.70;99.90;;;;;;5051310;28;20519;-83
2022/04/28 13:01:27;;;;;;;7.95;1.90;;;13.90;99.90;;;;;;5053816;28;20036;-83
2022/04/28 13:04:05;;;;;;;10.40;1.70;;;14.10;99.90;;;;;;5054153;28;20048;-82
2022/04/28 13:06:37;;;;;;;4.38;1.50;;;14.60;99.90;;;;;;5053520;28;20186;-82
2022/04/28 13:09:04;;;;;;;6.78;1.75;;;15.00;99.90;;;;;;5049340;28;20028;-82
2022/04/28 13:11:33;;;;;;;8.77;1.90;;;14.40;99.90;;;;;;5053646;28;20423;-82
2022/04/28 13:14:00;;;;;;;7.53;2.00;;;14.40;99.90;;;;;;5053960;28;20067;-82
2022/04/28 13:16:27;;;;;;;7.97;2.08;;;14.30;99.90;;;;;;5053552;28;20098;-82
2022/04/28 13:18:53;;;;;;;;;;;14.30;99.90;;;;;;5054340;28;20072;-82
2022/04/28 13:21:19;;;;;;;8.15;2.05;;;14.80;99.90;;;;;;5054272;28;19948;-81
2022/04/28 13:23:46;;;;;;;6.03;1.60;;;15.40;99.90;;;;;;5045794;28;20042;-82
2022/04/28 13:26:14;;;;;;;5.43;1.60;;;15.60;99.90;;;;;;5037099;28;20051;-82
2022/04/28 13:28:40;;;;;;;7.47;1.88;;;15.40;99.90;;;;;;5053244;28;20185;-82
2022/04/28 13:31:07;;;;;;;7.15;1.90;;;15.50;99.90;;;;;;5053486;28;20365;-82
2022/04/28 13:33:33;;;;;;;;;;;15.40;99.90;;;;;;5053464;28;20028;-82